Terminal Aerodrome Forecast
Issued by NWS

Home | Current Version | Previous Version | Text Only | Print | Product List | Glossary Off
Versions: 1 2 3 4 5 6 7 8 9 10 11 12 13 14 15 16 17 18 19 20

000
FTUS43 KGRB 311300 AAA
TAFMTW
TAF AMD
KMTW 311312Z 3113/0112 34008KT P6SM SKC
     FM311600 28008G15KT P6SM SCT035 BKN060
     FM312200 21005KT P6SM SCT035 BKN060
     FM010200 33005KT P6SM SCT035
     FM010800 03005KT P6SM SCT100=

USA.gov is the U.S. government's official web portal to all federal, state and local government web resources and services.